Terminal Aerodrome Forecast
Issued by NWS

Home | Current Version | Previous Version | Text Only | Print | Product List | Glossary On
Versions: 1 2 3 4 5 6 7 8 9 10 11 12 13 14 15 16 17 18 19 20 21 22 23 24 25 26 27 28 29 30 31 32 33 34 35 36 37 38 39 40 41 42 43 44 45 46 47 48 49 50
000
FTUS41 KCTP 190554
TAFUNV
TAF
KUNV 190554Z 1906/2006 00000KT P6SM BKN200
     FM191000 18005KT P6SM BKN025 WS020/19035KT
     FM191300 20005KT P6SM OVC015 WS020/21043KT
     FM191700 19006KT 4SM -DZ BR OVC009=

USA.gov is the U.S. government's official web portal to all federal, state and local government web resources and services.